PQQ weather

Port Macquarie Airport
Port Macquarie, New South Wales, Australia

Public forecast

Using degrees Celsius for public forecast. Weather courtesy of forecast.io.

METAR (pilot weather report)

Retrieved 2019/04/19 14:19 UTC (0 seconds ago):

YPMQ 191419Z AUTO 21005KT 190V250 9999 // BKN003 BKN115 18/18 Q1025

TAF (pilot weather forecast)

Closest forecast is Taree Airport, 32.5 nm (60.2 km) SSW. Retrieved 2019/04/19 14:33 UTC (0 seconds ago):

TAF YTRE 191307Z 1914/2002 30003KT 9999 -SHRA SCT025 FM200100 07005KT 9999 -SHRA SCT030 INTER 1914/2002 3000 SHRA BKN015 PROB30 1914/1922 0500 FG BKN001